»·PEaware :: N204LE KYKM-KPDX

N204LE :: KYKM-KPDX

FLIGHT INFORMATION

Flight Status: Arrived
Operator: Privately registered:
United States
More flights under this callsign
Pilot: Bill F. (18685)
Aircraft: PIPER PA-31/31P NAVAJO CHIEFTAIN
(PA31)
More flights by this aircraft type
Origin: KYKM Yakima Air Term/Mcallister
United States
Destination: KPDX Portland Intl
United States
More flights between these airports :: More routes between these airports
Route: +
File this flight plan on PilotEdge
Remarks:
Altitude:
(Current/Filed)
0ft
Speed:
(Current/Filed)
0kts
Departed: 12-Mar-20 08:31 PM
Arrived: 12-Mar-20 09:20 PM
Distance/Time
Traveled:
783nm/0:49
Distance/Time
To Go:
Arrived

Flight Plot

Page will automatically refresh every two minutes.


Map Options




Map Legend


Flown Route
Filed Route
Departure Airport
Arrival Airport
Navaid (VOR, NDB)
Fix

Horizontal Profiles

Position Reports

Time Latitude Longitude Heading Altitude Ground
Speed
12-Mar-20 20:22 46.571937 -120.547592 179 1077ft 0kts
12-Mar-20 20:23 46.571937 -120.547592 179 1077ft 0kts
12-Mar-20 20:24 46.571863 -120.547593 179 1077ft 2kts
12-Mar-20 20:25 46.570440 -120.546351 112 1074ft 8kts
12-Mar-20 20:26 46.568968 -120.540533 110 1065ft 13kts
12-Mar-20 20:27 46.567614 -120.535197 112 1054ft 20kts
12-Mar-20 20:28 46.566446 -120.531524 172 1047ft 0kts
12-Mar-20 20:29 46.566446 -120.531524 172 1047ft 0kts
12-Mar-20 20:30 46.566371 -120.534732 287 1053ft 63kts
12-Mar-20 20:31 46.566995 -120.576123 213 2161ft 131kts
12-Mar-20 20:32 46.529117 -120.596872 192 3479ft 147kts
12-Mar-20 20:34 46.490851 -120.605127 181 5275ft 141kts
12-Mar-20 20:35 46.450235 -120.607882 194 6629ft 162kts
12-Mar-20 20:36 46.401109 -120.611079 182 6556ft 174kts
12-Mar-20 20:37 46.353281 -120.612445 182 6557ft 171kts
12-Mar-20 20:38 46.305644 -120.613911 182 6557ft 170kts
12-Mar-20 20:39 46.258089 -120.615262 182 6557ft 170kts
12-Mar-20 20:40 46.210559 -120.616645 182 6557ft 170kts
12-Mar-20 20:41 46.163011 -120.618000 182 6557ft 170kts
12-Mar-20 20:42 46.115615 -120.619322 182 6557ft 170kts
12-Mar-20 20:43 46.068220 -120.620619 182 6557ft 170kts
12-Mar-20 20:44 46.020602 -120.621459 182 6559ft 172kts
12-Mar-20 20:45 45.972492 -120.622911 200 6556ft 171kts
12-Mar-20 20:46 45.936467 -120.666350 223 6564ft 171kts
12-Mar-20 20:47 45.910490 -120.721241 253 6568ft 170kts
12-Mar-20 20:48 45.895156 -120.786300 254 6566ft 175kts
12-Mar-20 20:49 45.879461 -120.853326 254 6566ft 177kts
12-Mar-20 20:50 45.863749 -120.920445 254 6566ft 177kts
12-Mar-20 20:51 45.848011 -120.987575 254 6565ft 177kts
12-Mar-20 20:52 45.831893 -121.054642 254 6565ft 176kts
12-Mar-20 20:52 45.818157 -121.110034 254 6565ft 176kts
12-Mar-20 20:54 45.798576 -121.186637 254 6565ft 175kts
12-Mar-20 20:54 45.784369 -121.240808 254 6565ft 174kts
12-Mar-20 20:55 45.767240 -121.305996 254 6565ft 174kts
12-Mar-20 20:57 45.747308 -121.381969 254 6564ft 174kts
12-Mar-20 20:57 45.732847 -121.436002 247 6563ft 176kts
12-Mar-20 20:59 45.705007 -121.507986 248 6564ft 176kts
12-Mar-20 20:59 45.686869 -121.560359 249 6564ft 176kts
12-Mar-20 21:00 45.665363 -121.623171 249 6564ft 175kts
12-Mar-20 21:01 45.643808 -121.686102 248 6567ft 176kts
12-Mar-20 21:02 45.622979 -121.749253 250 6583ft 175kts
12-Mar-20 21:03 45.601876 -121.811507 250 6599ft 175kts
12-Mar-20 21:04 45.580106 -121.874785 249 6616ft 177kts
12-Mar-20 21:05 45.558180 -121.938275 249 6630ft 179kts
12-Mar-20 21:06 45.536137 -122.002493 249 6630ft 179kts
12-Mar-20 21:07 45.514128 -122.066601 249 6630ft 180kts
12-Mar-20 21:08 45.492012 -122.131047 249 6590ft 180kts
12-Mar-20 21:09 45.474749 -122.193385 264 6047ft 157kts
12-Mar-20 21:10 45.467412 -122.249680 265 5352ft 131kts
12-Mar-20 21:11 45.470727 -122.295454 296 4473ft 111kts
12-Mar-20 21:12 45.486902 -122.328538 296 3536ft 109kts
12-Mar-20 21:13 45.501129 -122.366845 300 2622ft 110kts
12-Mar-20 21:14 45.517707 -122.403076 302 1729ft 109kts
12-Mar-20 21:15 45.535326 -122.444997 303 1188ft 139kts
12-Mar-20 21:16 45.552162 -122.496724 294 1125ft 148kts
12-Mar-20 21:17 45.573473 -122.542438 303 533ft 107kts
12-Mar-20 21:18 45.585859 -122.572680 300 20ft 69kts
12-Mar-20 21:19 45.587585 -122.582645 143 20ft 7kts
12-Mar-20 21:20 45.586072 -122.581825 35 20ft 0kts
12-Mar-20 21:21 45.586072 -122.581825 35 20ft 0kts
12-Mar-20 21:22 45.586072 -122.581825 35 20ft 0kts
12-Mar-20 21:23 45.586072 -122.581825 35 20ft 0kts
12-Mar-20 21:24 45.586072 -122.581825 35 20ft 0kts
12-Mar-20 21:25 33.676721 -117.870557 115 60ft 0kts
12-Mar-20 21:26 33.676721 -117.870557 115 60ft 0kts
12-Mar-20 21:27 33.676721 -117.870557 115 60ft 0kts
12-Mar-20 21:28 33.676721 -117.870557 115 60ft 0kts
12-Mar-20 21:29 33.676721 -117.870557 115 60ft 0kts
12-Mar-20 21:30 33.676721 -117.870557 115 60ft 0kts
12-Mar-20 21:31 33.676721 -117.870557 115 60ft 0kts
12-Mar-20 21:32 33.676721 -117.870557 115 60ft 0kts
12-Mar-20 21:33 33.676721 -117.870557 115 60ft 0kts

Navigation Log

Ident Type
Flight plan parsing failed, navigation log unavailable